Time;durP1;ratioP1;P1;durP2;ratioP2;P2;SDS_P1;SDS_P2;PMS_P1;PMS_P2;Temp;Humidity;BMP_temperature;BMP_pressure;BME280_temperature;BME280_humidity;BME280_pressure;Samples;Min_cycle;Max_cycle;Signal;HPM_P1;HPM_P2
2023/09/06 00:00:43;;;;;;;4.40;3.55;;;;;;;18.81;52.88;97084.91;6216203;23;20025;-79
2023/09/06 00:03:13;;;;;;;5.72;3.90;;;;;;;18.79;52.43;97086.97;6215747;23;20035;-79
2023/09/06 00:05:42;;;;;;;8.15;4.25;;;;;;;18.77;52.81;97083.72;6215565;23;20032;-79
2023/09/06 00:08:14;;;;;;;4.10;3.67;;;;;;;18.73;53.11;97088.63;6189854;23;20040;-78
2023/09/06 00:10:47;;;;;;;5.32;3.90;;;;;;;18.71;53.30;97088.03;6216746;23;20470;-79
2023/09/06 00:13:18;;;;;;;4.28;3.75;;;;;;;18.72;53.35;97094.16;6215473;23;20458;-79
2023/09/06 00:15:50;;;;;;;7.22;4.15;;;;;;;18.71;53.21;97097.81;6215399;23;20044;-79
2023/09/06 00:18:19;;;;;;;4.75;3.67;;;;;;;18.70;53.46;97093.56;6215472;23;20466;-79
2023/09/06 00:20:48;;;;;;;5.00;3.90;;;;;;;18.75;54.50;97101.63;6215253;23;20023;-79
2023/09/06 00:23:20;;;;;;;5.32;4.05;;;;;;;18.81;54.14;97092.06;6215622;23;20096;-79
2023/09/06 00:25:49;;;;;;;4.72;4.22;;;;;;;18.84;54.35;97091.59;6215843;23;20025;-79
2023/09/06 00:28:19;;;;;;;4.82;4.00;;;;;;;18.81;53.66;97090.22;6215396;23;20401;-79
2023/09/06 00:30:50;;;;;;;5.70;4.07;;;;;;;18.79;54.19;97100.19;6215301;23;20067;-79
2023/09/06 00:33:19;;;;;;;8.82;4.10;;;;;;;18.70;53.03;97086.44;6215380;23;20480;-80
2023/09/06 00:35:48;;;;;;;4.47;3.85;;;;;;;18.64;52.66;97086.53;6215416;23;20361;-78
2023/09/06 00:38:17;;;;;;;3.83;3.30;;;;;;;18.62;52.68;97091.22;6215406;23;20063;-79
2023/09/06 00:40:53;;;;;;;4.88;3.58;;;;;;;18.61;52.32;97084.34;6215325;23;20021;-79
2023/09/06 00:43:22;;;;;;;3.97;3.45;;;;;;;18.61;52.14;97079.84;6215193;23;20078;-79
2023/09/06 00:45:53;;;;;;;4.43;3.60;;;;;;;18.59;52.04;97081.09;6215067;23;20070;-80
2023/09/06 00:48:25;;;;;;;3.97;3.38;;;;;;;18.59;52.72;97081.91;6216333;23;20061;-79
2023/09/06 00:50:57;;;;;;;4.85;3.67;;;;;;;18.61;52.46;97090.41;6215301;23;20454;-79
2023/09/06 00:53:27;;;;;;;5.38;3.42;;;;;;;18.62;53.13;97080.66;6215025;23;20016;-79
2023/09/06 00:55:58;;;;;;;4.95;4.18;;;;;;;18.60;52.68;97072.94;6215210;23;20021;-79
2023/09/06 00:58:28;;;;;;;3.75;3.35;;;;;;;18.59;52.40;97078.47;6215619;23;20070;-79
2023/09/06 01:01:00;;;;;;;3.92;3.40;;;;;;;18.57;51.94;97078.66;6215606;23;20025;-79
2023/09/06 01:03:29;;;;;;;5.28;3.47;;;;;;;18.54;52.39;97076.44;6217839;23;20028;-79
2023/09/06 01:06:04;;;;;;;4.75;3.70;;;;;;;18.53;52.22;97075.66;6214698;23;20470;-79
2023/09/06 01:08:39;;;;;;;3.67;3.38;;;;;;;18.51;51.92;97075.06;6214996;23;20525;-79
2023/09/06 01:11:19;;;;;;;5.00;4.05;;;;;;;18.41;52.18;97069.50;6215274;23;20025;-79
2023/09/06 01:13:49;;;;;;;4.82;3.75;;;;;;;18.32;52.46;97065.53;6215072;23;20020;-79
2023/09/06 01:16:24;;;;;;;4.82;3.88;;;;;;;18.27;52.66;97062.75;6214639;23;20070;-79
2023/09/06 01:18:53;;;;;;;4.50;3.60;;;;;;;18.24;52.69;97065.81;6215072;23;20013;-80
2023/09/06 01:21:26;;;;;;;3.92;3.47;;;;;;;18.19;52.91;97065.66;6214996;23;20016;-79
2023/09/06 01:23:59;;;;;;;4.25;3.45;;;;;;;18.14;52.93;97068.16;6227289;23;20024;-79
2023/09/06 01:26:31;;;;;;;6.22;3.70;;;;;;;18.08;53.07;97073.28;6215282;23;20031;-79
2023/09/06 01:29:00;;;;;;;;;;;;;;;18.06;52.95;97066.59;6216309;23;20095;-79
2023/09/06 01:31:31;;;;;;;5.90;3.58;;;;;;;18.01;53.31;97059.31;6214788;23;19943;-79
2023/09/06 01:34:00;;;;;;;4.72;3.28;;;;;;;18.00;53.19;97063.00;6214863;23;20482;-79
2023/09/06 01:36:30;;;;;;;3.70;3.40;;;;;;;17.99;53.55;97056.09;6214794;23;20070;-79
2023/09/06 01:39:01;;;;;;;4.85;3.63;;;;;;;17.98;53.53;97059.78;6215212;23;20025;-79
2023/09/06 01:41:31;;;;;;;5.07;3.42;;;;;;;17.97;53.48;97059.97;6215098;23;20048;-79
2023/09/06 01:44:00;;;;;;;4.22;3.78;;;;;;;17.92;53.63;97056.16;6214756;23;20021;-79
2023/09/06 01:46:29;;;;;;;5.57;4.40;;;;;;;17.87;53.64;97063.94;6214653;23;20067;-79
2023/09/06 01:48:59;;;;;;;4.97;3.78;;;;;;;17.83;53.81;97068.03;6214709;23;20029;-79
2023/09/06 01:51:31;;;;;;;3.85;3.45;;;;;;;17.81;53.99;97056.84;6214834;23;20021;-79
2023/09/06 01:54:02;;;;;;;6.13;3.55;;;;;;;17.80;53.92;97057.03;6215151;23;20028;-79
2023/09/06 01:56:31;;;;;;;3.55;3.25;;;;;;;17.78;53.98;97051.22;6214886;23;20039;-79
2023/09/06 01:59:00;;;;;;;4.13;3.70;;;;;;;17.78;54.01;97053.84;6214982;23;20021;-79
2023/09/06 02:01:30;;;;;;;4.28;3.63;;;;;;;17.77;54.20;97057.50;6215058;23;20104;-79
2023/09/06 02:04:01;;;;;;;5.25;3.90;;;;;;;17.76;54.11;97061.97;6214965;23;20453;-79
2023/09/06 02:06:30;;;;;;;4.28;3.65;;;;;;;17.78;54.81;97062.56;6214698;23;20029;-79
2023/09/06 02:08:59;;;;;;;5.35;4.30;;;;;;;17.86;55.65;97056.22;6214595;23;20477;-79
2023/09/06 02:11:31;;;;;;;5.15;4.65;;;;;;;17.93;55.84;97057.00;6215075;23;20057;-79
2023/09/06 02:14:00;;;;;;;;;;;;;;;17.96;55.36;97061.81;6215058;23;20021;-79
2023/09/06 02:16:30;;;;;;;7.38;5.47;;;;;;;17.92;55.77;97064.06;6214964;23;19922;-79
2023/09/06 02:18:58;;;;;;;6.60;5.47;;;;;;;17.94;56.09;97073.63;6216179;23;20405;-79
2023/09/06 02:21:28;;;;;;;5.20;4.53;;;;;;;17.94;56.30;97068.34;6190325;23;20357;-79
2023/09/06 02:23:58;;;;;;;6.03;5.20;;;;;;;17.90;56.46;97060.84;6216356;23;20028;-79
2023/09/06 02:26:29;;;;;;;6.00;5.40;;;;;;;17.91;56.77;97069.59;6216877;23;20107;-79
2023/09/06 02:28:57;;;;;;;6.22;5.57;;;;;;;17.82;55.75;97057.66;6216778;23;20031;-78
2023/09/06 02:31:26;;;;;;;6.22;5.63;;;;;;;17.73;55.55;97066.84;6216396;23;20103;-79
2023/09/06 02:33:55;;;;;;;6.68;5.72;;;;;;;17.62;55.58;97071.81;6216651;23;20028;-79
2023/09/06 02:36:24;;;;;;;5.93;5.25;;;;;;;17.54;56.74;97063.38;6216943;23;20358;-79
2023/09/06 02:38:53;;;;;;;7.43;5.22;;;;;;;17.54;56.89;97069.44;6215978;23;20012;-79
2023/09/06 02:41:22;;;;;;;6.05;5.05;;;;;;;17.57;57.05;97069.00;6216081;23;20027;-79
2023/09/06 02:43:52;;;;;;;6.00;5.40;;;;;;;17.61;57.13;97070.19;6216223;23;20025;-79
2023/09/06 02:46:20;;;;;;;5.70;4.45;;;;;;;17.66;57.30;97072.19;6216336;23;20017;-79
2023/09/06 02:48:50;;;;;;;7.20;5.00;;;;;;;17.68;56.90;97076.22;6216208;23;20016;-78
2023/09/06 02:51:18;;;;;;;6.22;5.60;;;;;;;17.63;56.20;97070.78;6216759;23;20021;-79
2023/09/06 02:53:47;;;;;;;6.22;5.45;;;;;;;17.62;57.12;97074.47;6216093;23;20017;-79
2023/09/06 02:56:17;;;;;;;7.00;5.35;;;;;;;17.57;56.50;97073.47;6215942;23;20023;-79
2023/09/06 02:58:47;;;;;;;7.25;5.50;;;;;;;17.47;56.41;97068.66;6216172;23;20016;-79
2023/09/06 03:01:20;;;;;;;5.47;4.60;;;;;;;17.39;57.15;97074.22;6216163;23;20056;-79
2023/09/06 03:03:51;;;;;;;8.10;5.07;;;;;;;17.40;58.63;97079.25;6216049;23;20462;-78
2023/09/06 03:06:32;;;;;;;5.72;5.03;;;;;;;17.42;58.14;97077.22;6216518;23;20021;-79
2023/09/06 03:09:06;;;;;;;7.03;5.25;;;;;;;17.45;58.15;97076.00;6216514;23;20025;-79
2023/09/06 03:11:35;;;;;;;7.40;5.15;;;;;;;17.43;58.35;97070.16;6216253;23;20055;-78
2023/09/06 03:14:04;;;;;;;7.60;5.35;;;;;;;17.38;58.29;97076.06;6216143;23;20104;-79
2023/09/06 03:16:38;;;;;;;7.10;5.18;;;;;;;17.37;58.75;97079.69;6216132;23;20025;-79
2023/09/06 03:19:10;;;;;;;9.38;5.72;;;;;;;17.35;58.36;97075.66;6215953;23;20067;-79
2023/09/06 03:21:40;;;;;;;7.78;5.53;;;;;;;17.35;58.67;97073.03;6215926;23;20458;-79
2023/09/06 03:24:12;;;;;;;6.60;5.85;;;;;;;17.33;58.09;97077.72;6215564;23;20017;-79
2023/09/06 03:26:43;;;;;;;;;;;;;;;17.30;57.53;97074.47;6216613;23;20024;-79
2023/09/06 03:29:15;;;;;;;7.32;5.22;;;;;;;17.23;59.00;97073.72;6216470;23;19998;-79
2023/09/06 03:31:45;;;;;;;9.55;5.57;;;;;;;17.21;58.86;97070.47;6216252;23;20023;-79
2023/09/06 03:34:15;;;;;;;7.22;5.13;;;;;;;17.17;59.04;97066.66;6219777;23;20017;-79
2023/09/06 03:36:48;;;;;;;8.75;5.25;;;;;;;17.16;59.20;97069.47;6227185;23;20336;-79
2023/09/06 03:39:19;;;;;;;8.02;5.25;;;;;;;17.11;58.38;97064.06;6216437;23;20347;-79
2023/09/06 03:41:48;;;;;;;7.60;5.68;;;;;;;17.00;58.41;97063.69;6215848;23;20012;-79
2023/09/06 03:44:17;;;;;;;6.90;5.20;;;;;;;16.88;58.33;97060.94;6216300;23;20095;-78
2023/09/06 03:46:48;;;;;;;7.93;5.57;;;;;;;16.84;60.25;97062.38;6215999;23;20048;-79
2023/09/06 03:49:18;;;;;;;8.80;5.53;;;;;;;16.85;59.66;97050.00;6215615;23;20024;-79
2023/09/06 03:51:48;;;;;;;8.18;5.95;;;;;;;16.82;59.95;97061.75;6216290;23;20020;-79
2023/09/06 03:54:18;;;;;;;7.38;5.75;;;;;;;16.79;59.02;97061.31;6215622;23;20023;-79
2023/09/06 03:56:46;;;;;;;8.05;5.35;;;;;;;16.72;59.52;97050.81;6215429;23;20362;-79
2023/09/06 03:59:16;;;;;;;8.70;5.85;;;;;;;16.73;60.05;97056.91;6215389;23;20016;-79
2023/09/06 04:01:45;;;;;;;9.55;5.55;;;;;;;16.74;59.51;97063.78;6215518;23;20016;-79
2023/09/06 04:04:16;;;;;;;9.25;6.22;;;;;;;16.71;58.77;97065.03;6215399;23;20476;-79
2023/09/06 04:06:45;;;;;;;9.50;6.00;;;;;;;16.61;58.94;97076.00;6215871;23;20012;-79
2023/09/06 04:09:14;;;;;;;11.27;6.57;;;;;;;16.52;59.44;97071.97;6215510;23;20032;-79
2023/09/06 04:11:42;;;;;;;9.88;5.78;;;;;;;16.48;60.51;97066.31;6216192;23;20021;-79
2023/09/06 04:14:10;;;;;;;8.63;6.07;;;;;;;16.45;60.27;97072.00;6215306;23;20020;-79
2023/09/06 04:16:39;;;;;;;7.38;5.82;;;;;;;16.50;60.82;97067.94;6215252;23;20374;-79
2023/09/06 04:19:08;;;;;;;8.15;6.10;;;;;;;16.58;60.81;97075.63;6215855;23;20025;-79
2023/09/06 04:21:40;;;;;;;8.88;5.90;;;;;;;16.60;60.23;97070.94;6216105;23;20083;-80
2023/09/06 04:24:08;;;;;;;9.27;7.13;;;;;;;16.53;59.73;97068.34;6215278;23;20020;-79
2023/09/06 04:26:38;;;;;;;9.75;6.55;;;;;;;16.44;59.73;97067.75;6215109;23;20016;-79
2023/09/06 04:29:06;;;;;;;9.63;6.53;;;;;;;16.47;60.91;97080.50;6215281;23;20362;-79
2023/09/06 04:31:35;;;;;;;8.57;6.22;;;;;;;16.54;60.63;97082.31;6216062;23;20028;-79
2023/09/06 04:34:04;;;;;;;8.45;6.00;;;;;;;16.54;60.32;97083.09;6215272;23;20078;-79
2023/09/06 04:36:36;;;;;;;8.05;5.82;;;;;;;16.51;60.54;97086.16;6215483;23;20024;-79
2023/09/06 04:39:08;;;;;;;;;;;;;;;16.51;60.06;97080.91;6215648;23;20529;-79
2023/09/06 04:41:36;;;;;;;9.88;6.70;;;;;;;16.44;60.50;97086.19;6214767;23;20324;-79
2023/09/06 04:44:05;;;;;;;9.55;6.05;;;;;;;16.42;60.85;97080.31;6215184;23;20021;-79
2023/09/06 04:46:34;;;;;;;8.63;6.35;;;;;;;16.43;61.45;97081.91;6214964;23;20029;-79
2023/09/06 04:49:03;;;;;;;11.35;7.07;;;;;;;16.43;60.72;97084.56;6215286;23;20023;-79
2023/09/06 04:51:31;;;;;;;10.95;6.90;;;;;;;16.41;61.05;97094.47;6215971;23;20446;-79
2023/09/06 04:54:00;;;;;;;9.05;6.32;;;;;;;16.44;61.58;97091.47;6215073;23;20024;-79
2023/09/06 04:56:31;;;;;;;9.65;6.60;;;;;;;16.45;61.92;97090.44;6214934;23;20024;-79
2023/09/06 04:58:59;;;;;;;8.32;6.25;;;;;;;16.46;62.44;97091.22;6215138;23;20024;-79
2023/09/06 05:01:28;;;;;;;11.18;6.70;;;;;;;16.40;60.91;97090.25;6215466;23;20032;-79
2023/09/06 05:03:57;;;;;;;10.10;7.43;;;;;;;16.39;61.55;97099.16;6215565;23;20340;-79
2023/09/06 05:06:25;;;;;;;9.70;6.72;;;;;;;16.43;61.79;97092.47;6215425;23;20020;-79
2023/09/06 05:08:54;;;;;;;9.40;6.80;;;;;;;16.45;61.42;97093.06;6214983;23;20466;-79
2023/09/06 05:11:23;;;;;;;10.73;6.80;;;;;;;16.44;61.05;97098.53;6215011;23;20016;-79
2023/09/06 05:13:53;;;;;;;10.57;6.82;;;;;;;16.44;61.95;97107.25;6214898;23;20029;-79
2023/09/06 05:16:22;;;;;;;10.75;7.00;;;;;;;16.44;61.52;97107.25;6215098;23;20035;-79
2023/09/06 05:18:52;;;;;;;10.52;6.78;;;;;;;16.42;60.66;97103.19;6214853;23;20028;-79
2023/09/06 05:21:21;;;;;;;10.43;7.03;;;;;;;16.43;61.22;97105.63;6215036;23;20021;-79
2023/09/06 05:23:50;;;;;;;10.95;7.07;;;;;;;16.48;61.63;97103.16;6214790;23;20021;-79
2023/09/06 05:26:19;;;;;;;13.02;8.27;;;;;;;16.54;61.33;97098.91;6215376;23;20028;-79
2023/09/06 05:28:48;;;;;;;10.57;7.45;;;;;;;16.55;61.44;97103.19;6215156;23;20021;-79
2023/09/06 05:31:19;;;;;;;11.43;7.63;;;;;;;16.56;61.69;97103.97;6215190;23;20032;-79
2023/09/06 05:33:48;;;;;;;12.85;7.30;;;;;;;16.55;60.40;97092.66;6215268;23;20023;-79
2023/09/06 05:36:16;;;;;;;13.32;7.85;;;;;;;16.48;60.29;97089.19;6215250;23;20233;-79
2023/09/06 05:38:45;;;;;;;12.85;7.40;;;;;;;16.36;60.04;97104.03;6214770;23;20027;-79
2023/09/06 05:41:13;;;;;;;12.32;8.35;;;;;;;16.22;60.27;97105.88;6215010;23;20017;-79
2023/09/06 05:43:42;;;;;;;11.23;7.47;;;;;;;16.09;60.79;97108.50;6215509;23;20024;-79
2023/09/06 05:46:11;;;;;;;10.98;7.88;;;;;;;15.98;60.92;97105.50;6223551;23;20415;-79
2023/09/06 05:48:44;;;;;;;11.18;7.80;;;;;;;15.91;61.09;97107.31;6215790;23;20025;-79
2023/09/06 05:51:12;;;;;;;10.52;8.15;;;;;;;15.85;61.08;97102.84;6215187;23;20021;-79
2023/09/06 05:53:41;;;;;;;11.25;6.70;;;;;;;15.83;62.49;97096.97;6216871;23;20021;-79
2023/09/06 05:56:09;;;;;;;9.32;7.05;;;;;;;15.85;62.00;97101.06;6216565;23;20024;-79
2023/09/06 05:58:38;;;;;;;12.13;7.13;;;;;;;15.88;62.14;97107.72;6217424;23;20071;-79
2023/09/06 06:01:08;;;;;;;21.08;7.65;;;;;;;15.93;62.22;97100.03;6217038;23;20021;-79
2023/09/06 06:03:37;;;;;;;9.25;7.80;;;;;;;15.98;61.57;97102.03;6216720;23;20024;-79
2023/09/06 06:06:10;;;;;;;9.10;7.10;;;;;;;15.98;61.89;97104.69;6216586;23;20020;-79
2023/09/06 06:08:39;;;;;;;9.82;6.72;;;;;;;16.02;62.14;97101.44;6217273;23;20397;-78
2023/09/06 06:11:08;;;;;;;7.30;6.10;;;;;;;16.09;62.70;97103.25;6216832;23;20104;-79
2023/09/06 06:13:37;;;;;;;7.70;5.88;;;;;;;16.19;62.27;97107.09;6217230;23;20024;-79
2023/09/06 06:16:06;;;;;;;7.47;6.15;;;;;;;16.24;61.90;97112.53;6216575;23;20524;-79
2023/09/06 06:18:35;;;;;;;6.95;5.70;;;;;;;16.30;61.83;97116.19;6217251;23;20017;-79
2023/09/06 06:21:04;;;;;;;7.75;6.45;;;;;;;16.37;61.46;97114.34;6216409;23;20458;-79
2023/09/06 06:23:34;;;;;;;6.82;5.60;;;;;;;16.45;61.60;97115.97;6216569;23;20524;-78
2023/09/06 06:26:02;;;;;;;8.10;6.15;;;;;;;16.55;61.42;97112.88;6216540;23;20017;-79
2023/09/06 06:28:31;;;;;;;10.18;6.35;;;;;;;16.66;61.25;97117.50;6216771;23;20037;-79
2023/09/06 06:31:01;;;;;;;6.43;5.40;;;;;;;16.78;61.04;97118.50;6216879;23;20025;-79
2023/09/06 06:33:29;;;;;;;7.95;6.47;;;;;;;16.92;60.61;97126.38;6217045;23;20100;-79
2023/09/06 06:35:58;;;;;;;8.13;4.97;;;;;;;17.04;60.55;97125.50;6216715;23;20020;-79
2023/09/06 06:38:27;;;;;;;10.55;5.47;;;;;;;17.17;60.05;97127.28;6217227;23;20032;-79
2023/09/06 06:40:58;;;;;;;8.80;5.43;;;;;;;17.30;59.97;97121.94;6216858;23;20036;-79
2023/09/06 06:43:27;;;;;;;5.93;4.50;;;;;;;17.45;59.35;97129.56;6216268;23;20521;-79
2023/09/06 06:45:56;;;;;;;7.47;5.03;;;;;;;17.63;58.95;97123.56;6216549;23;20358;-79
2023/09/06 06:48:25;;;;;;;7.30;4.88;;;;;;;17.78;58.78;97111.91;6216288;23;20027;-79
2023/09/06 06:50:54;;;;;;;5.78;4.40;;;;;;;17.92;58.38;97119.50;6216731;23;20021;-79
2023/09/06 06:53:24;;;;;;;5.03;4.53;;;;;;;18.08;58.06;97120.81;6216740;23;20056;-79
2023/09/06 06:55:54;;;;;;;8.27;4.32;;;;;;;18.24;57.60;97121.28;6216307;23;20063;-79
2023/09/06 06:58:24;;;;;;;6.80;5.13;;;;;;;18.38;56.93;97121.94;6216587;23;20055;-79
2023/09/06 07:00:53;;;;;;;6.10;4.35;;;;;;;18.50;56.59;97121.00;6216190;23;20020;-79
2023/09/06 07:03:24;;;;;;;8.93;5.07;;;;;;;18.64;56.79;97126.16;6216506;23;20074;-79
2023/09/06 07:05:53;;;;;;;6.78;4.95;;;;;;;18.79;56.13;97126.63;6216236;23;20071;-79
2023/09/06 07:08:23;;;;;;;6.28;4.40;;;;;;;18.93;55.92;97130.75;6216707;23;20406;-79
2023/09/06 07:10:53;;;;;;;4.85;4.35;;;;;;;19.09;55.53;97128.50;6216164;23;20016;-78
2023/09/06 07:13:24;;;;;;;7.30;4.47;;;;;;;19.23;55.27;97129.94;6216396;23;20397;-79
2023/09/06 07:15:53;;;;;;;7.83;4.17;;;;;;;19.41;54.80;97130.94;6216665;23;20059;-79
2023/09/06 07:18:24;;;;;;;5.97;4.20;;;;;;;19.60;54.37;97135.13;6216287;23;20020;-79
2023/09/06 07:20:53;;;;;;;9.93;4.65;;;;;;;19.77;54.26;97130.03;6216855;23;20079;-79
2023/09/06 07:23:22;;;;;;;6.13;3.97;;;;;;;19.93;53.91;97124.06;6216755;23;20024;-79
2023/09/06 07:25:51;;;;;;;5.10;4.60;;;;;;;20.11;53.45;97127.66;6216223;23;20020;-79
2023/09/06 07:28:25;;;;;;;4.68;4.22;;;;;;;20.28;52.88;97125.13;6216277;23;20397;-79
2023/09/06 07:30:55;;;;;;;4.95;4.10;;;;;;;20.41;52.52;97124.88;6190405;23;20028;-79
2023/09/06 07:33:23;;;;;;;5.20;3.45;;;;;;;20.54;52.26;97127.28;6216761;23;20024;-80
2023/09/06 07:35:52;;;;;;;4.13;3.70;;;;;;;20.70;51.67;97131.09;6217140;23;20016;-79
2023/09/06 07:38:22;;;;;;;5.57;3.63;;;;;;;20.87;51.39;97125.88;6216880;23;20048;-79
2023/09/06 07:40:58;;;;;;;5.10;3.47;;;;;;;21.03;51.24;97126.19;6216300;23;20100;-79
2023/09/06 07:43:29;;;;;;;6.32;3.78;;;;;;;21.17;50.67;97130.97;6216428;23;20029;-79
2023/09/06 07:46:01;;;;;;;3.83;3.47;;;;;;;21.31;50.54;97128.03;6216618;23;20027;-79
2023/09/06 07:48:35;;;;;;;4.43;3.63;;;;;;;21.47;50.06;97126.50;6216709;23;20402;-79
2023/09/06 07:51:05;;;;;;;4.80;3.75;;;;;;;21.65;50.09;97128.97;6216248;23;20461;-79
2023/09/06 07:53:35;;;;;;;5.18;3.60;;;;;;;21.84;49.45;97120.75;6190385;23;20385;-79
2023/09/06 07:56:06;;;;;;;4.10;3.70;;;;;;;22.02;48.80;97128.50;6225030;23;20016;-79
2023/09/06 07:58:55;;;;;;;7.00;3.80;;;;;;;22.19;48.74;97131.13;6190298;23;20024;-79
2023/09/06 08:01:28;;;;;;;5.65;3.63;;;;;;;22.41;48.24;97136.53;6216745;23;20196;-80
2023/09/06 08:03:58;;;;;;;4.72;3.45;;;;;;;22.60;48.28;97135.19;6189887;23;20039;-79
2023/09/06 08:06:31;;;;;;;5.32;3.70;;;;;;;22.83;47.67;97136.03;6191211;23;20043;-79
2023/09/06 08:09:01;;;;;;;4.45;3.83;;;;;;;23.03;47.64;97138.97;6215999;23;20031;-79
2023/09/06 08:11:32;;;;;;;3.60;3.30;;;;;;;23.29;46.67;97136.59;6216524;23;20056;-79
2023/09/06 08:14:22;;;;;;;5.53;3.13;;;;;;;23.55;46.44;97132.34;6215684;23;20020;-79
2023/09/06 08:16:52;;;;;;;5.10;3.38;;;;;;;23.75;45.43;97137.06;6216136;23;20017;-79
2023/09/06 08:19:21;;;;;;;3.50;3.20;;;;;;;23.96;46.07;97145.22;6215915;23;20029;-79
2023/09/06 08:21:49;;;;;;;4.30;3.90;;;;;;;24.22;44.96;97149.69;6215684;23;20051;-80
2023/09/06 08:24:19;;;;;;;3.88;3.25;;;;;;;24.49;44.81;97156.03;6216472;23;20020;-79
2023/09/06 08:26:48;;;;;;;3.55;3.25;;;;;;;24.73;44.18;97146.59;6216047;23;20369;-80
2023/09/06 08:29:15;;;;;;;5.07;3.30;;;;;;;24.92;43.22;97146.13;6215024;23;20021;-80
2023/09/06 08:31:44;;;;;;;3.92;3.55;;;;;;;25.14;43.01;97151.28;6215457;23;20025;-80
2023/09/06 08:34:12;;;;;;;3.90;2.97;;;;;;;25.52;42.91;97149.25;6214087;23;20021;-80
2023/09/06 08:36:40;;;;;;;4.43;3.55;;;;;;;26.20;41.71;97146.41;6214824;23;20024;-80
2023/09/06 08:39:08;;;;;;;4.68;3.33;;;;;;;27.32;39.89;97154.13;6214969;23;20035;-80
2023/09/06 08:41:35;;;;;;;4.00;3.42;;;;;;;28.56;37.67;97151.38;6214769;23;20028;-80
2023/09/06 08:44:06;;;;;;;8.88;3.38;;;;;;;29.70;35.54;97160.47;6216307;23;20021;-80
2023/09/06 08:46:39;;;;;;;4.65;3.58;;;;;;;30.62;33.85;97160.06;6216137;23;20051;-79
2023/09/06 08:49:09;;;;;;;4.95;3.10;;;;;;;31.49;32.91;97161.84;6215688;23;20355;-79
2023/09/06 08:51:37;;;;;;;5.30;3.70;;;;;;;32.28;30.77;97159.72;6215378;23;20024;-81
2023/09/06 08:54:05;;;;;;;4.75;3.50;;;;;;;32.92;29.74;97159.41;6215284;23;20091;-81
2023/09/06 08:56:33;;;;;;;4.68;3.35;;;;;;;33.52;28.87;97166.03;6214709;23;20082;-80
2023/09/06 08:59:01;;;;;;;3.78;2.88;;;;;;;34.09;29.46;97157.78;6215007;23;20048;-81
2023/09/06 09:01:29;;;;;;;3.72;3.10;;;;;;;34.64;27.65;97167.09;6215001;23;20064;-81
2023/09/06 09:03:57;;;;;;;5.32;3.05;;;;;;;35.06;27.45;97169.91;6215030;23;20032;-80
2023/09/06 09:06:28;;;;;;;2.80;2.60;;;;;;;35.50;26.21;97167.75;6214784;23;20027;-80
2023/09/06 09:08:56;;;;;;;3.33;3.03;;;;;;;35.95;25.03;97169.81;6215088;23;20398;-80
2023/09/06 09:11:24;;;;;;;5.95;2.75;;;;;;;36.30;24.92;97177.66;6215095;23;20042;-81
2023/09/06 09:13:51;;;;;;;5.18;3.17;;;;;;;36.67;24.14;97169.56;6214532;23;20466;-79
2023/09/06 09:16:19;;;;;;;2.95;2.65;;;;;;;36.98;22.94;97165.50;6214305;23;20028;-79
2023/09/06 09:18:47;;;;;;;3.67;2.90;;;;;;;37.07;22.51;97174.34;6214547;23;20084;-79
2023/09/06 09:21:15;;;;;;;3.50;3.20;;;;;;;37.16;22.77;97166.88;6214346;23;20021;-79
2023/09/06 09:23:47;;;;;;;3.80;3.10;;;;;;;37.20;22.31;97162.34;6214055;23;20017;-79
2023/09/06 09:26:19;;;;;;;3.15;2.55;;;;;;;37.25;22.86;97164.81;6214440;23;20031;-78
2023/09/06 09:28:47;;;;;;;3.20;2.90;;;;;;;37.12;22.81;97160.53;6214425;23;20388;-79
2023/09/06 09:31:16;;;;;;;4.85;3.13;;;;;;;36.97;23.08;97161.97;6214334;23;20100;-79
2023/09/06 09:33:45;;;;;;;3.30;3.00;;;;;;;36.67;23.58;97161.41;6214165;23;20021;-78
2023/09/06 09:36:14;;;;;;;3.45;2.95;;;;;;;36.25;24.02;97156.91;6214359;23;20477;-79
2023/09/06 09:38:43;;;;;;;3.67;2.80;;;;;;;35.58;24.70;97156.03;6214247;23;20027;-79
2023/09/06 09:41:11;;;;;;;7.05;3.67;;;;;;;34.94;26.12;97153.56;6214237;23;20031;-79
2023/09/06 09:43:39;;;;;;;5.55;2.97;;;;;;;34.35;26.14;97149.63;6213543;23;20013;-79
2023/09/06 09:46:09;;;;;;;4.15;2.67;;;;;;;33.81;27.07;97146.53;6214334;23;20043;-79
2023/09/06 09:48:39;;;;;;;4.07;2.72;;;;;;;33.34;28.29;97152.50;6214251;23;20027;-80
2023/09/06 09:51:10;;;;;;;5.65;2.85;;;;;;;33.02;28.97;97153.72;6214151;23;20025;-79
2023/09/06 09:53:40;;;;;;;4.60;2.90;;;;;;;32.93;28.81;97150.16;6214104;23;20032;-79
2023/09/06 09:56:08;;;;;;;3.22;2.70;;;;;;;33.06;29.01;97143.88;6214255;23;20021;-79
2023/09/06 09:58:39;;;;;;;4.88;2.85;;;;;;;33.43;28.45;97149.81;6214284;23;20021;-79
2023/09/06 10:01:08;;;;;;;3.70;2.90;;;;;;;34.06;27.71;97134.84;6214158;23;20032;-78
2023/09/06 10:03:39;;;;;;;6.85;3.00;;;;;;;34.93;26.29;97143.84;6214121;23;20030;-79
2023/09/06 10:06:08;;;;;;;2.80;2.60;;;;;;;35.71;25.50;97142.53;6216182;23;20036;-79
2023/09/06 10:08:36;;;;;;;3.05;2.75;;;;;;;36.45;24.73;97143.56;6214391;23;20083;-79
2023/09/06 10:11:07;;;;;;;4.30;3.03;;;;;;;37.03;23.56;97144.31;6214736;23;20024;-79
2023/09/06 10:13:39;;;;;;;4.43;2.63;;;;;;;37.49;23.48;97141.41;6214015;23;20403;-79
2023/09/06 10:16:07;;;;;;;4.82;2.90;;;;;;;37.72;23.27;97141.72;6213720;23;20048;-79
2023/09/06 10:18:37;;;;;;;3.60;2.58;;;;;;;37.43;22.51;97140.06;6214118;23;20378;-79
2023/09/06 10:21:06;;;;;;;3.75;2.50;;;;;;;36.79;23.61;97134.25;6213987;23;20020;-79
2023/09/06 10:23:41;;;;;;;2.80;2.53;;;;;;;36.10;23.78;97138.50;6213984;23;20043;-79
2023/09/06 10:26:09;;;;;;;4.93;2.55;;;;;;;35.53;25.02;97137.22;6214065;23;20024;-79
2023/09/06 10:28:38;;;;;;;8.18;2.78;;;;;;;35.06;26.24;97135.47;6214153;23;20016;-79
2023/09/06 10:31:09;;;;;;;3.20;2.67;;;;;;;34.66;26.26;97132.34;6213868;23;20100;-79
2023/09/06 10:33:56;;;;;;;3.70;2.60;;;;;;;34.04;25.98;97134.38;6213995;23;20082;-79
2023/09/06 10:36:27;;;;;;;3.38;2.10;;;;;;;33.58;26.77;97135.81;6213849;23;20043;-79
2023/09/06 10:39:16;;;;;;;2.83;2.53;;;;;;;33.11;28.04;97134.84;6214534;23;20521;-79
2023/09/06 10:42:18;;;;;;;3.15;2.50;;;;;;;32.77;27.85;97126.28;6216185;23;20052;-79
2023/09/06 10:45:10;;;;;;;5.40;2.10;;;;;;;32.44;28.29;97140.09;6215443;23;20016;-80
2023/09/06 10:47:38;;;;;;;2.42;2.15;;;;;;;32.16;27.62;97133.28;6216045;23;20091;-78
2023/09/06 10:50:16;;;;;;;3.63;2.20;;;;;;;31.84;28.49;97132.44;6215767;23;20051;-79
2023/09/06 10:52:48;;;;;;;3.15;2.00;;;;;;;31.64;29.52;97132.91;6215639;23;20078;-79
2023/09/06 10:55:18;;;;;;;;;;;;;;;31.54;29.17;97140.13;6216157;23;20328;-79
2023/09/06 10:58:06;;;;;;;3.63;1.90;;;;;;;31.28;28.73;97126.41;6215403;23;19970;-79
2023/09/06 11:00:35;;;;;;;4.45;1.92;;;;;;;31.08;29.24;97129.53;6215315;23;20074;-79
2023/09/06 11:03:17;;;;;;;2.60;2.35;;;;;;;30.93;29.62;97123.34;6215193;23;20020;-79
2023/09/06 11:05:46;;;;;;;;;;;;;;;30.84;30.52;97121.66;6216023;23;20024;-78
2023/09/06 11:08:24;;;;;;;2.03;1.92;;;;;;;30.73;29.99;97121.84;6215523;23;19951;-80
2023/09/06 11:10:53;;;;;;;3.67;1.95;;;;;;;30.68;30.54;97118.44;6215587;23;20104;-80
2023/09/06 11:13:22;;;;;;;2.08;1.95;;;;;;;30.65;29.77;97119.84;6215338;23;20051;-80
2023/09/06 11:15:51;;;;;;;2.38;2.13;;;;;;;30.55;29.75;97120.06;6215573;23;20092;-80
2023/09/06 11:18:19;;;;;;;3.22;2.40;;;;;;;30.44;29.49;97116.75;6215420;23;20103;-80
2023/09/06 11:20:48;;;;;;;2.83;2.00;;;;;;;30.23;29.53;97105.53;6215648;23;20096;-79
2023/09/06 11:23:16;;;;;;;2.20;1.95;;;;;;;30.07;29.41;97109.59;6215171;23;20418;-79
2023/09/06 11:25:44;;;;;;;3.13;2.20;;;;;;;29.96;29.99;97109.75;6215336;23;20025;-79
2023/09/06 11:28:17;;;;;;;2.70;1.63;;;;;;;29.95;30.84;97110.03;6215482;23;20028;-79
2023/09/06 11:30:46;;;;;;;2.65;2.03;;;;;;;29.97;30.08;97099.78;6215810;23;20021;-82
2023/09/06 11:33:17;;;;;;;2.20;2.00;;;;;;;29.96;30.13;97108.97;6215539;23;20021;-81
2023/09/06 11:35:52;;;;;;;2.22;2.03;;;;;;;29.98;30.75;97096.81;6215465;23;20025;-81
2023/09/06 11:38:25;;;;;;;3.55;2.22;;;;;;;29.99;31.08;97103.78;6215831;23;20024;-80
2023/09/06 11:40:53;;;;;;;2.20;1.80;;;;;;;29.98;30.68;97104.09;6215936;23;20025;-82
2023/09/06 11:43:24;;;;;;;2.13;1.92;;;;;;;29.96;31.90;97093.63;6215050;23;20016;-81
2023/09/06 11:45:53;;;;;;;2.30;1.63;;;;;;;30.03;30.69;97097.81;6215679;23;20103;-80
2023/09/06 11:48:27;;;;;;;3.90;1.70;;;;;;;29.99;30.44;97101.09;6215667;23;20075;-82